sensor_id;sensor_type;location;lat;lon;timestamp;P1;durP1;ratioP1;P2;durP2;ratioP2
11173;SDS011;5643;50.856;12.088;2023-04-01T01:25:16;1.20;;;0.50;;
11173;SDS011;5643;50.856;12.088;2023-04-01T01:27:47;0.80;;;0.40;;
11173;SDS011;5643;50.856;12.088;2023-04-01T01:30:21;0.50;;;0.37;;
11173;SDS011;5643;50.856;12.088;2023-04-01T01:32:55;0.90;;;0.40;;
11173;SDS011;5643;50.856;12.088;2023-04-01T01:35:27;0.20;;;0.20;;
11173;SDS011;5643;50.856;12.088;2023-04-01T01:37:58;1.00;;;0.30;;
11173;SDS011;5643;50.856;12.088;2023-04-01T01:40:27;0.50;;;0.30;;
11173;SDS011;5643;50.856;12.088;2023-04-01T01:42:57;0.50;;;0.30;;
11173;SDS011;5643;50.856;12.088;2023-04-01T01:45:26;0.77;;;0.40;;
11173;SDS011;5643;50.856;12.088;2023-04-01T01:47:54;0.50;;;0.40;;
11173;SDS011;5643;50.856;12.088;2023-04-01T01:50:22;0.70;;;0.30;;
11173;SDS011;5643;50.856;12.088;2023-04-01T01:52:59;0.60;;;0.30;;
11173;SDS011;5643;50.856;12.088;2023-04-01T01:55:27;0.50;;;0.40;;
11173;SDS011;5643;50.856;12.088;2023-04-01T01:57:56;0.73;;;0.30;;
11173;SDS011;5643;50.856;12.088;2023-04-01T02:00:25;0.77;;;0.50;;
11173;SDS011;5643;50.856;12.088;2023-04-01T02:02:52;0.37;;;0.30;;
11173;SDS011;5643;50.856;12.088;2023-04-01T02:05:21;0.50;;;0.40;;
11173;SDS011;5643;50.856;12.088;2023-04-01T02:07:52;0.57;;;0.40;;
11173;SDS011;5643;50.856;12.088;2023-04-01T02:10:25;0.47;;;0.30;;
11173;SDS011;5643;50.856;12.088;2023-04-01T02:12:52;0.40;;;0.30;;
11173;SDS011;5643;50.856;12.088;2023-04-01T02:15:20;0.37;;;0.37;;
11173;SDS011;5643;50.856;12.088;2023-04-01T02:17:48;0.30;;;0.30;;
11173;SDS011;5643;50.856;12.088;2023-04-01T02:20:17;0.87;;;0.30;;
11173;SDS011;5643;50.856;12.088;2023-04-01T02:22:45;0.93;;;0.40;;
11173;SDS011;5643;50.856;12.088;2023-04-01T03:20:32;0.50;;;0.30;;
11173;SDS011;5643;50.856;12.088;2023-04-01T03:22:59;0.83;;;0.30;;
11173;SDS011;5643;50.856;12.088;2023-04-01T05:27:02;0.50;;;0.27;;
11173;SDS011;5643;50.856;12.088;2023-04-01T05:29:29;0.73;;;0.37;;
11173;SDS011;5643;50.856;12.088;2023-04-01T05:31:56;0.40;;;0.20;;
11173;SDS011;5643;50.856;12.088;2023-04-01T05:34:24;1.23;;;0.30;;
11173;SDS011;5643;50.856;12.088;2023-04-01T05:36:51;0.60;;;0.30;;
11173;SDS011;5643;50.856;12.088;2023-04-01T05:39:18;0.30;;;0.30;;
11173;SDS011;5643;50.856;12.088;2023-04-01T05:41:45;0.60;;;0.30;;
11173;SDS011;5643;50.856;12.088;2023-04-01T05:44:14;0.47;;;0.30;;
11173;SDS011;5643;50.856;12.088;2023-04-01T05:46:41;0.40;;;0.30;;
11173;SDS011;5643;50.856;12.088;2023-04-01T05:49:08;0.40;;;0.30;;
11173;SDS011;5643;50.856;12.088;2023-04-01T05:51:35;0.40;;;0.17;;
11173;SDS011;5643;50.856;12.088;2023-04-01T05:54:03;0.77;;;0.30;;
11173;SDS011;5643;50.856;12.088;2023-04-01T05:56:30;0.80;;;0.40;;
11173;SDS011;5643;50.856;12.088;2023-04-01T05:58:58;0.60;;;0.27;;
11173;SDS011;5643;50.856;12.088;2023-04-01T06:01:26;0.83;;;0.40;;
11173;SDS011;5643;50.856;12.088;2023-04-01T06:03:54;0.30;;;0.30;;
11173;SDS011;5643;50.856;12.088;2023-04-01T06:06:23;0.30;;;0.30;;
11173;SDS011;5643;50.856;12.088;2023-04-01T06:08:50;0.30;;;0.30;;
11173;SDS011;5643;50.856;12.088;2023-04-01T06:11:20;0.63;;;0.40;;
11173;SDS011;5643;50.856;12.088;2023-04-01T06:13:53;0.37;;;0.30;;
11173;SDS011;5643;50.856;12.088;2023-04-01T06:16:26;0.67;;;0.40;;
11173;SDS011;5643;50.856;12.088;2023-04-01T06:19:01;1.03;;;0.50;;
11173;SDS011;5643;50.856;12.088;2023-04-01T06:24:20;0.30;;;0.20;;
11173;SDS011;5643;50.856;12.088;2023-04-01T06:26:54;0.53;;;0.37;;
11173;SDS011;5643;50.856;12.088;2023-04-01T06:29:37;0.80;;;0.40;;
11173;SDS011;5643;50.856;12.088;2023-04-01T06:32:26;0.40;;;0.30;;
11173;SDS011;5643;50.856;12.088;2023-04-01T06:35:04;0.53;;;0.30;;
11173;SDS011;5643;50.856;12.088;2023-04-01T06:37:41;1.23;;;0.40;;
11173;SDS011;5643;50.856;12.088;2023-04-01T06:40:19;1.07;;;0.60;;
11173;SDS011;5643;50.856;12.088;2023-04-01T06:42:57;0.40;;;0.30;;
11173;SDS011;5643;50.856;12.088;2023-04-01T06:45:29;0.27;;;0.27;;
11173;SDS011;5643;50.856;12.088;2023-04-01T06:48:04;0.40;;;0.30;;
11173;SDS011;5643;50.856;12.088;2023-04-01T06:50:40;0.60;;;0.30;;
11173;SDS011;5643;50.856;12.088;2023-04-01T06:53:12;1.20;;;0.40;;
11173;SDS011;5643;50.856;12.088;2023-04-01T06:55:42;0.47;;;0.30;;
11173;SDS011;5643;50.856;12.088;2023-04-01T06:58:13;1.13;;;0.50;;
11173;SDS011;5643;50.856;12.088;2023-04-01T07:00:43;0.80;;;0.43;;
11173;SDS011;5643;50.856;12.088;2023-04-01T07:03:16;0.43;;;0.40;;
11173;SDS011;5643;50.856;12.088;2023-04-01T07:05:47;0.67;;;0.57;;
11173;SDS011;5643;50.856;12.088;2023-04-01T07:08:17;1.10;;;0.47;;
11173;SDS011;5643;50.856;12.088;2023-04-01T07:10:46;0.83;;;0.40;;
11173;SDS011;5643;50.856;12.088;2023-04-01T07:13:15;0.70;;;0.50;;
11173;SDS011;5643;50.856;12.088;2023-04-01T07:15:48;0.77;;;0.33;;
11173;SDS011;5643;50.856;12.088;2023-04-01T07:18:17;0.73;;;0.40;;
11173;SDS011;5643;50.856;12.088;2023-04-01T07:20:44;0.30;;;0.30;;
11173;SDS011;5643;50.856;12.088;2023-04-01T07:23:16;1.23;;;0.33;;
11173;SDS011;5643;50.856;12.088;2023-04-01T07:25:51;1.17;;;0.40;;
11173;SDS011;5643;50.856;12.088;2023-04-01T07:28:19;1.10;;;0.30;;
11173;SDS011;5643;50.856;12.088;2023-04-01T07:30:50;1.13;;;0.40;;
11173;SDS011;5643;50.856;12.088;2023-04-01T07:33:19;0.80;;;0.40;;
11173;SDS011;5643;50.856;12.088;2023-04-01T07:35:53;1.90;;;0.40;;
11173;SDS011;5643;50.856;12.088;2023-04-01T07:38:25;0.87;;;0.40;;
11173;SDS011;5643;50.856;12.088;2023-04-01T07:40:55;0.87;;;0.57;;
11173;SDS011;5643;50.856;12.088;2023-04-01T07:43:31;0.67;;;0.33;;
11173;SDS011;5643;50.856;12.088;2023-04-01T07:46:03;0.67;;;0.50;;
11173;SDS011;5643;50.856;12.088;2023-04-01T07:48:39;0.60;;;0.40;;
11173;SDS011;5643;50.856;12.088;2023-04-01T07:51:12;0.37;;;0.30;;
11173;SDS011;5643;50.856;12.088;2023-04-01T07:53:43;0.57;;;0.40;;
11173;SDS011;5643;50.856;12.088;2023-04-01T07:56:15;0.53;;;0.47;;
11173;SDS011;5643;50.856;12.088;2023-04-01T07:58:47;0.60;;;0.40;;
11173;SDS011;5643;50.856;12.088;2023-04-01T08:01:17;0.40;;;0.33;;
11173;SDS011;5643;50.856;12.088;2023-04-01T08:03:53;0.40;;;0.30;;
11173;SDS011;5643;50.856;12.088;2023-04-01T08:06:24;0.43;;;0.23;;
11173;SDS011;5643;50.856;12.088;2023-04-01T08:11:53;1.13;;;0.53;;
11173;SDS011;5643;50.856;12.088;2023-04-01T08:14:26;0.83;;;0.30;;
11173;SDS011;5643;50.856;12.088;2023-04-01T08:16:57;1.40;;;0.50;;
11173;SDS011;5643;50.856;12.088;2023-04-01T08:19:30;0.97;;;0.60;;
11173;SDS011;5643;50.856;12.088;2023-04-01T08:22:02;0.87;;;0.63;;
11173;SDS011;5643;50.856;12.088;2023-04-01T08:24:33;0.87;;;0.63;;
11173;SDS011;5643;50.856;12.088;2023-04-01T08:27:03;1.77;;;1.67;;
11173;SDS011;5643;50.856;12.088;2023-04-01T08:29:34;2.00;;;1.90;;
11173;SDS011;5643;50.856;12.088;2023-04-01T08:32:05;0.83;;;0.73;;
11173;SDS011;5643;50.856;12.088;2023-04-01T08:34:34;1.13;;;0.40;;
11173;SDS011;5643;50.856;12.088;2023-04-01T08:37:07;0.83;;;0.30;;
11173;SDS011;5643;50.856;12.088;2023-04-01T08:39:37;0.50;;;0.40;;
11173;SDS011;5643;50.856;12.088;2023-04-01T08:45:07;0.70;;;0.70;;
11173;SDS011;5643;50.856;12.088;2023-04-01T08:47:42;0.50;;;0.50;;
11173;SDS011;5643;50.856;12.088;2023-04-01T08:53:14;0.37;;;0.30;;
11173;SDS011;5643;50.856;12.088;2023-04-01T08:55:49;0.20;;;0.20;;
11173;SDS011;5643;50.856;12.088;2023-04-01T08:58:32;0.30;;;0.30;;
11173;SDS011;5643;50.856;12.088;2023-04-01T09:01:10;0.60;;;0.60;;
11173;SDS011;5643;50.856;12.088;2023-04-01T09:12:06;0.33;;;0.33;;
11173;SDS011;5643;50.856;12.088;2023-04-01T09:17:30;0.50;;;0.50;;
11173;SDS011;5643;50.856;12.088;2023-04-01T09:20:17;0.30;;;0.30;;
11173;SDS011;5643;50.856;12.088;2023-04-01T09:22:57;0.30;;;0.30;;
11173;SDS011;5643;50.856;12.088;2023-04-01T09:25:36;0.30;;;0.30;;
11173;SDS011;5643;50.856;12.088;2023-04-01T09:28:15;0.10;;;0.10;;
11173;SDS011;5643;50.856;12.088;2023-04-01T09:30:58;0.37;;;0.20;;
11173;SDS011;5643;50.856;12.088;2023-04-01T09:36:20;0.80;;;0.80;;
11173;SDS011;5643;50.856;12.088;2023-04-01T09:38:55;1.10;;;1.00;;
11173;SDS011;5643;50.856;12.088;2023-04-01T09:41:27;1.17;;;0.70;;
11173;SDS011;5643;50.856;12.088;2023-04-01T09:43:58;0.40;;;0.40;;
11173;SDS011;5643;50.856;12.088;2023-04-01T09:46:34;0.40;;;0.40;;
11173;SDS011;5643;50.856;12.088;2023-04-01T09:51:53;0.27;;;0.20;;
11173;SDS011;5643;50.856;12.088;2023-04-01T09:54:31;0.20;;;0.20;;
11173;SDS011;5643;50.856;12.088;2023-04-01T10:00:01;0.27;;;0.13;;
11173;SDS011;5643;50.856;12.088;2023-04-01T10:08:30;0.20;;;0.20;;
11173;SDS011;5643;50.856;12.088;2023-04-01T10:11:11;0.20;;;0.20;;
11173;SDS011;5643;50.856;12.088;2023-04-01T10:19:21;0.20;;;0.20;;
11173;SDS011;5643;50.856;12.088;2023-04-01T10:24:49;0.20;;;0.20;;
11173;SDS011;5643;50.856;12.088;2023-04-01T10:36:01;0.20;;;0.20;;
11173;SDS011;5643;50.856;12.088;2023-04-01T10:41:31;0.13;;;0.10;;
11173;SDS011;5643;50.856;12.088;2023-04-01T10:44:19;0.17;;;0.17;;
11173;SDS011;5643;50.856;12.088;2023-04-01T10:49:44;0.53;;;0.30;;
11173;SDS011;5643;50.856;12.088;2023-04-01T10:55:04;0.10;;;0.10;;
11173;SDS011;5643;50.856;12.088;2023-04-01T10:57:50;0.20;;;0.00;;
11173;SDS011;5643;50.856;12.088;2023-04-01T11:00:37;0.27;;;0.10;;
11173;SDS011;5643;50.856;12.088;2023-04-01T11:03:32;0.63;;;0.10;;
11173;SDS011;5643;50.856;12.088;2023-04-01T11:09:01;0.10;;;0.10;;
11173;SDS011;5643;50.856;12.088;2023-04-01T11:14:31;0.40;;;0.30;;
11173;SDS011;5643;50.856;12.088;2023-04-01T11:17:09;0.70;;;0.30;;
11173;SDS011;5643;50.856;12.088;2023-04-01T11:19:49;0.10;;;0.10;;
11173;SDS011;5643;50.856;12.088;2023-04-01T11:22:37;0.27;;;0.27;;
11173;SDS011;5643;50.856;12.088;2023-04-01T11:25:20;0.33;;;0.20;;
11173;SDS011;5643;50.856;12.088;2023-04-01T15:31:32;0.50;;;0.50;;
11173;SDS011;5643;50.856;12.088;2023-04-01T15:34:09;0.40;;;0.40;;
11173;SDS011;5643;50.856;12.088;2023-04-01T15:36:44;0.50;;;0.50;;
11173;SDS011;5643;50.856;12.088;2023-04-01T15:39:13;0.50;;;0.50;;
11173;SDS011;5643;50.856;12.088;2023-04-01T15:41:43;0.40;;;0.40;;
11173;SDS011;5643;50.856;12.088;2023-04-01T15:44:35;0.53;;;0.30;;
11173;SDS011;5643;50.856;12.088;2023-04-01T15:47:08;0.30;;;0.30;;
11173;SDS011;5643;50.856;12.088;2023-04-01T15:49:45;0.50;;;0.30;;
11173;SDS011;5643;50.856;12.088;2023-04-01T15:52:18;0.30;;;0.30;;
11173;SDS011;5643;50.856;12.088;2023-04-01T15:54:57;0.20;;;0.20;;
11173;SDS011;5643;50.856;12.088;2023-04-01T15:57:28;0.13;;;0.13;;
11173;SDS011;5643;50.856;12.088;2023-04-01T16:00:11;0.27;;;0.27;;
11173;SDS011;5643;50.856;12.088;2023-04-01T16:02:44;0.30;;;0.30;;
11173;SDS011;5643;50.856;12.088;2023-04-01T16:05:21;0.30;;;0.30;;
11173;SDS011;5643;50.856;12.088;2023-04-01T16:07:55;0.33;;;0.33;;
11173;SDS011;5643;50.856;12.088;2023-04-01T16:13:14;0.60;;;0.40;;
11173;SDS011;5643;50.856;12.088;2023-04-01T16:15:47;0.30;;;0.30;;
11173;SDS011;5643;50.856;12.088;2023-04-01T16:21:01;0.43;;;0.43;;
11173;SDS011;5643;50.856;12.088;2023-04-01T16:23:32;1.00;;;0.40;;
11173;SDS011;5643;50.856;12.088;2023-04-01T16:26:05;0.30;;;0.30;;
11173;SDS011;5643;50.856;12.088;2023-04-01T16:28:34;0.40;;;0.40;;
11173;SDS011;5643;50.856;12.088;2023-04-01T17:32:01;0.60;;;0.60;;
11173;SDS011;5643;50.856;12.088;2023-04-01T17:34:34;0.70;;;0.67;;
11173;SDS011;5643;50.856;12.088;2023-04-01T17:37:15;0.40;;;0.40;;
11173;SDS011;5643;50.856;12.088;2023-04-01T17:39:49;0.70;;;0.70;;
11173;SDS011;5643;50.856;12.088;2023-04-01T17:42:20;0.50;;;0.50;;
11173;SDS011;5643;50.856;12.088;2023-04-01T17:44:53;0.57;;;0.57;;
11173;SDS011;5643;50.856;12.088;2023-04-01T17:47:27;1.07;;;0.70;;
11173;SDS011;5643;50.856;12.088;2023-04-01T17:49:59;0.30;;;0.30;;
11173;SDS011;5643;50.856;12.088;2023-04-01T17:52:29;1.03;;;0.70;;
11173;SDS011;5643;50.856;12.088;2023-04-01T17:54:58;0.73;;;0.60;;
11173;SDS011;5643;50.856;12.088;2023-04-01T17:57:30;0.50;;;0.50;;
11173;SDS011;5643;50.856;12.088;2023-04-01T18:00:03;0.40;;;0.40;;
11173;SDS011;5643;50.856;12.088;2023-04-01T18:02:43;0.50;;;0.50;;
11173;SDS011;5643;50.856;12.088;2023-04-01T18:05:17;0.50;;;0.50;;
11173;SDS011;5643;50.856;12.088;2023-04-01T18:07:54;0.50;;;0.50;;
11173;SDS011;5643;50.856;12.088;2023-04-01T18:10:25;0.40;;;0.40;;
11173;SDS011;5643;50.856;12.088;2023-04-01T18:13:04;0.30;;;0.30;;
11173;SDS011;5643;50.856;12.088;2023-04-01T18:15:36;0.40;;;0.40;;
11173;SDS011;5643;50.856;12.088;2023-04-01T18:18:16;0.37;;;0.30;;
11173;SDS011;5643;50.856;12.088;2023-04-01T18:20:53;0.60;;;0.60;;
11173;SDS011;5643;50.856;12.088;2023-04-01T18:23:34;0.90;;;0.90;;
11173;SDS011;5643;50.856;12.088;2023-04-01T18:26:06;1.10;;;0.90;;
11173;SDS011;5643;50.856;12.088;2023-04-01T18:28:36;0.87;;;0.87;;
11173;SDS011;5643;50.856;12.088;2023-04-01T18:31:08;1.23;;;1.00;;
11173;SDS011;5643;50.856;12.088;2023-04-01T20:33:24;1.63;;;1.53;;
11173;SDS011;5643;50.856;12.088;2023-04-01T20:36:00;2.10;;;2.00;;
11173;SDS011;5643;50.856;12.088;2023-04-01T20:41:16;2.20;;;2.10;;
11173;SDS011;5643;50.856;12.088;2023-04-01T20:43:50;2.20;;;2.00;;
11173;SDS011;5643;50.856;12.088;2023-04-01T20:46:19;1.93;;;1.80;;
11173;SDS011;5643;50.856;12.088;2023-04-01T20:51:46;1.70;;;1.60;;
11173;SDS011;5643;50.856;12.088;2023-04-01T20:54:19;1.60;;;1.50;;
11173;SDS011;5643;50.856;12.088;2023-04-01T20:56:57;1.30;;;1.20;;
11173;SDS011;5643;50.856;12.088;2023-04-01T20:59:41;1.40;;;1.30;;
11173;SDS011;5643;50.856;12.088;2023-04-01T21:02:16;2.20;;;2.07;;
11173;SDS011;5643;50.856;12.088;2023-04-01T21:05:00;1.80;;;1.70;;
11173;SDS011;5643;50.856;12.088;2023-04-01T21:07:33;2.10;;;1.90;;
11173;SDS011;5643;50.856;12.088;2023-04-01T21:10:07;2.60;;;2.40;;
11173;SDS011;5643;50.856;12.088;2023-04-01T21:12:41;2.40;;;2.20;;
11173;SDS011;5643;50.856;12.088;2023-04-01T21:15:21;1.93;;;1.83;;
11173;SDS011;5643;50.856;12.088;2023-04-01T21:17:56;1.90;;;1.80;;
11173;SDS011;5643;50.856;12.088;2023-04-01T21:20:33;1.83;;;1.73;;
11173;SDS011;5643;50.856;12.088;2023-04-01T21:23:30;2.20;;;2.10;;
11173;SDS011;5643;50.856;12.088;2023-04-01T21:26:01;1.90;;;1.80;;
11173;SDS011;5643;50.856;12.088;2023-04-01T21:28:36;2.00;;;1.90;;
11173;SDS011;5643;50.856;12.088;2023-04-01T21:31:12;1.50;;;1.40;;
11173;SDS011;5643;50.856;12.088;2023-04-01T21:33:45;1.50;;;1.40;;
11173;SDS011;5643;50.856;12.088;2023-04-01T21:36:23;2.10;;;2.00;;
11173;SDS011;5643;50.856;12.088;2023-04-01T21:41:55;2.10;;;1.90;;
11173;SDS011;5643;50.856;12.088;2023-04-01T21:44:38;1.90;;;1.80;;
11173;SDS011;5643;50.856;12.088;2023-04-01T21:50:00;1.10;;;1.10;;
11173;SDS011;5643;50.856;12.088;2023-04-01T21:58:38;0.80;;;0.80;;
11173;SDS011;5643;50.856;12.088;2023-04-01T22:01:18;0.57;;;0.57;;
11173;SDS011;5643;50.856;12.088;2023-04-01T22:06:32;0.50;;;0.50;;
11173;SDS011;5643;50.856;12.088;2023-04-01T22:09:06;0.50;;;0.50;;
11173;SDS011;5643;50.856;12.088;2023-04-01T22:11:40;0.40;;;0.40;;
11173;SDS011;5643;50.856;12.088;2023-04-01T22:14:13;0.50;;;0.50;;
11173;SDS011;5643;50.856;12.088;2023-04-01T22:16:44;0.40;;;0.40;;
11173;SDS011;5643;50.856;12.088;2023-04-01T22:19:17;0.60;;;0.60;;
11173;SDS011;5643;50.856;12.088;2023-04-01T22:21:53;0.57;;;0.57;;
11173;SDS011;5643;50.856;12.088;2023-04-01T22:24:41;0.80;;;0.80;;
11173;SDS011;5643;50.856;12.088;2023-04-01T22:27:14;0.80;;;0.80;;
11173;SDS011;5643;50.856;12.088;2023-04-01T22:29:49;0.80;;;0.80;;
11173;SDS011;5643;50.856;12.088;2023-04-01T22:32:20;0.80;;;0.80;;
11173;SDS011;5643;50.856;12.088;2023-04-01T22:34:52;1.27;;;1.00;;
11173;SDS011;5643;50.856;12.088;2023-04-01T22:37:22;1.40;;;1.40;;
11173;SDS011;5643;50.856;12.088;2023-04-01T22:39:55;1.03;;;1.03;;
11173;SDS011;5643;50.856;12.088;2023-04-01T22:42:31;1.50;;;1.40;;
11173;SDS011;5643;50.856;12.088;2023-04-01T22:45:07;1.27;;;1.27;;
11173;SDS011;5643;50.856;12.088;2023-04-01T22:47:44;2.10;;;2.00;;
11173;SDS011;5643;50.856;12.088;2023-04-01T22:50:14;2.50;;;2.30;;
11173;SDS011;5643;50.856;12.088;2023-04-01T22:52:46;2.00;;;1.90;;
11173;SDS011;5643;50.856;12.088;2023-04-01T22:55:14;2.87;;;2.60;;
11173;SDS011;5643;50.856;12.088;2023-04-01T22:57:44;2.10;;;2.00;;
11173;SDS011;5643;50.856;12.088;2023-04-01T23:00:21;1.90;;;1.80;;
11173;SDS011;5643;50.856;12.088;2023-04-01T23:03:01;1.33;;;1.33;;
11173;SDS011;5643;50.856;12.088;2023-04-01T23:05:32;1.40;;;1.30;;
11173;SDS011;5643;50.856;12.088;2023-04-01T23:08:34;1.63;;;1.40;;
11173;SDS011;5643;50.856;12.088;2023-04-01T23:11:10;1.60;;;1.50;;
11173;SDS011;5643;50.856;12.088;2023-04-01T23:13:46;1.73;;;1.63;;
11173;SDS011;5643;50.856;12.088;2023-04-01T23:16:18;1.70;;;1.60;;
11173;SDS011;5643;50.856;12.088;2023-04-01T23:18:55;1.80;;;1.70;;
11173;SDS011;5643;50.856;12.088;2023-04-01T23:21:31;2.20;;;2.10;;
11173;SDS011;5643;50.856;12.088;2023-04-01T23:24:09;1.87;;;1.77;;
11173;SDS011;5643;50.856;12.088;2023-04-01T23:26:48;1.80;;;1.70;;
11173;SDS011;5643;50.856;12.088;2023-04-01T23:29:23;1.90;;;1.80;;
11173;SDS011;5643;50.856;12.088;2023-04-01T23:31:58;1.77;;;1.67;;
